TimeCST,TemperatureF,Dew PointF,Humidity,Sea Level PressureIn,VisibilityMPH,Wind Direction,Wind SpeedMPH,Gust SpeedMPH,PrecipitationIn,Events,Conditions,WindDirDegrees,DateUTC
12:15 AM,53.6,33.8,47,30.24,10.0,South,10.4,-,N/A,,Scattered Clouds,170,2012-11-19 06:15:00
12:35 AM,53.6,33.8,47,30.24,10.0,South,8.1,16.1,N/A,,Overcast,170,2012-11-19 06:35:00
12:55 AM,53.6,33.8,47,30.23,10.0,South,8.1,-,N/A,,Overcast,170,2012-11-19 06:55:00
1:15 AM,53.6,33.8,47,30.23,10.0,SSE,11.5,-,N/A,,Mostly Cloudy,160,2012-11-19 07:15:00
1:35 AM,53.6,33.8,47,30.23,10.0,South,10.4,19.6,N/A,,Overcast,170,2012-11-19 07:35:00
1:55 AM,55.4,33.8,44,30.23,10.0,South,11.5,-,N/A,,Overcast,170,2012-11-19 07:55:00
2:15 AM,53.6,35.6,51,30.24,10.0,South,10.4,-,N/A,,Overcast,180,2012-11-19 08:15:00
2:35 AM,51.8,37.4,58,30.25,10.0,South,10.4,-,N/A,,Overcast,170,2012-11-19 08:35:00
3:35 AM,48.2,39.2,71,30.24,10.0,SSE,8.1,-,0.01,,Overcast,150,2012-11-19 09:35:00
4:35 AM,48.2,39.2,71,30.24,10.0,ESE,5.8,-,0.02,,Overcast,120,2012-11-19 10:35:00
4:55 AM,48.2,39.2,71,30.24,10.0,ESE,6.9,-,0.02,,Overcast,110,2012-11-19 10:55:00
5:35 AM,48.2,39.2,71,30.24,10.0,ESE,5.8,-,N/A,,Overcast,120,2012-11-19 11:35:00
6:15 AM,48.2,41.0,76,30.23,10.0,ESE,9.2,-,0.01,,Overcast,120,2012-11-19 12:15:00
6:55 AM,48.2,39.2,71,30.23,10.0,SE,8.1,-,0.01,,Overcast,130,2012-11-19 12:55:00
7:55 AM,48.2,39.2,71,30.24,10.0,SE,6.9,-,N/A,,Overcast,140,2012-11-19 13:55:00
8:15 AM,50.0,39.2,66,30.24,10.0,SE,6.9,-,N/A,,Overcast,140,2012-11-19 14:15:00
8:35 AM,51.8,39.2,62,30.24,10.0,SSE,8.1,-,N/A,,Overcast,150,2012-11-19 14:35:00
8:55 AM,51.8,39.2,62,30.24,10.0,SSE,10.4,-,N/A,,Overcast,160,2012-11-19 14:55:00
9:15 AM,53.6,39.2,58,30.24,10.0,SSE,11.5,16.1,N/A,,Overcast,160,2012-11-19 15:15:00
9:55 AM,55.4,39.2,54,30.23,10.0,SSE,13.8,18.4,N/A,,Overcast,160,2012-11-19 15:55:00
10:15 AM,55.4,41.0,58,30.23,10.0,South,11.5,16.1,N/A,,Overcast,180,2012-11-19 16:15:00
10:55 AM,60.8,42.8,52,30.22,10.0,South,16.1,-,N/A,,Mostly Cloudy,180,2012-11-19 16:55:00
11:15 AM,60.8,42.8,52,30.21,10.0,South,17.3,24.2,N/A,,Mostly Cloudy,180,2012-11-19 17:15:00
11:35 AM,62.6,42.8,48,30.21,10.0,South,15.0,-,N/A,,Overcast,190,2012-11-19 17:35:00
12:15 PM,62.6,44.6,52,30.19,10.0,South,17.3,21.9,N/A,,Mostly Cloudy,190,2012-11-19 18:15:00
12:35 PM,60.8,42.8,52,30.19,10.0,South,17.3,-,N/A,,Overcast,190,2012-11-19 18:35:00
1:15 PM,62.6,44.6,52,30.18,10.0,South,13.8,-,N/A,,Mostly Cloudy,180,2012-11-19 19:15:00
1:35 PM,60.8,42.8,52,30.18,10.0,South,15.0,19.6,N/A,,Overcast,170,2012-11-19 19:35:00
2:15 PM,62.6,44.6,52,30.16,10.0,South,15.0,19.6,N/A,,Partly Cloudy,170,2012-11-19 20:15:00
2:35 PM,62.6,44.6,52,30.16,10.0,South,13.8,-,N/A,,Mostly Cloudy,190,2012-11-19 20:35:00
2:55 PM,60.8,44.6,55,30.16,10.0,South,12.7,-,N/A,,Scattered Clouds,190,2012-11-19 20:55:00
3:15 PM,62.6,44.6,52,30.16,10.0,SSW,12.7,-,N/A,,Clear,200,2012-11-19 21:15:00
3:35 PM,62.6,44.6,52,30.15,10.0,South,13.8,-,N/A,,Clear,180,2012-11-19 21:35:00
4:15 PM,60.8,42.8,52,30.16,10.0,South,11.5,-,N/A,,Clear,180,2012-11-19 22:15:00
4:35 PM,59.0,42.8,55,30.16,10.0,South,6.9,-,N/A,,Clear,190,2012-11-19 22:35:00
4:56 PM,57.2,42.8,59,30.16,10.0,South,6.9,-,N/A,,Clear,180,2012-11-19 22:56:00
5:35 PM,57.2,42.8,59,30.17,10.0,South,6.9,-,N/A,,Clear,170,2012-11-19 23:35:00
5:55 PM,55.4,42.8,63,30.16,10.0,South,5.8,-,N/A,,Clear,170,2012-11-19 23:55:00
6:15 PM,55.4,42.8,63,30.17,10.0,South,5.8,-,N/A,,Clear,170,2012-11-20 00:15:00
6:35 PM,53.6,41.0,62,30.17,10.0,SSE,5.8,-,N/A,,Clear,150,2012-11-20 00:35:00
7:15 PM,51.8,39.2,62,30.18,10.0,Calm,Calm,-,N/A,,Clear,0,2012-11-20 01:15:00
7:35 PM,53.6,41.0,62,30.18,10.0,South,3.5,-,N/A,,Clear,180,2012-11-20 01:35:00
8:15 PM,51.8,41.0,67,30.19,10.0,South,5.8,-,N/A,,Clear,170,2012-11-20 02:15:00
8:35 PM,51.8,39.2,62,30.19,10.0,SSE,4.6,-,N/A,,Clear,160,2012-11-20 02:35:00
8:55 PM,51.8,39.2,62,30.19,10.0,South,3.5,-,N/A,,Clear,170,2012-11-20 02:55:00
9:16 PM,50.0,39.2,66,30.19,10.0,South,3.5,-,N/A,,Clear,190,2012-11-20 03:16:00
9:35 PM,50.0,39.2,66,30.19,10.0,Calm,Calm,-,N/A,,Clear,0,2012-11-20 03:35:00
9:55 PM,50.0,39.2,66,30.19,10.0,South,3.5,-,N/A,,Clear,180,2012-11-20 03:55:00
10:35 PM,48.2,39.2,71,30.18,10.0,South,4.6,-,N/A,,Clear,190,2012-11-20 04:35:00
10:55 PM,48.2,39.2,71,30.18,10.0,SSW,4.6,-,N/A,,Clear,200,2012-11-20 04:55:00
11:15 PM,48.2,39.2,71,30.18,10.0,SSW,3.5,-,N/A,,Clear,210,2012-11-20 05:15:00
11:55 PM,48.2,39.2,71,30.18,10.0,SSW,4.6,-,N/A,,Clear,200,2012-11-20 05:55:00